createdAt,value
2022-10-09T00:01:23.785Z,73.76
2022-10-09T00:03:53.877Z,74.29
2022-10-09T00:06:24.242Z,74.41
2022-10-09T00:08:52.471Z,74.16
2022-10-09T00:11:28.090Z,74.59
2022-10-09T00:14:11.285Z,74.38
2022-10-09T00:16:40.737Z,74.32
2022-10-09T00:19:08.760Z,74.92
2022-10-09T00:21:36.769Z,74.37
2022-10-09T00:24:06.186Z,74.53
2022-10-09T00:26:40.118Z,74.72
2022-10-09T00:29:08.429Z,74.56
2022-10-09T00:31:36.367Z,74.69
2022-10-09T00:34:06.558Z,75.27
2022-10-09T00:36:34.457Z,74.80
2022-10-09T00:39:02.370Z,74.71
2022-10-09T00:41:34.538Z,75.13
2022-10-09T00:44:05.872Z,74.86
2022-10-09T00:46:37.586Z,74.84
2022-10-09T00:49:15.857Z,74.62
2022-10-09T00:51:46.863Z,74.51
2022-10-09T00:54:17.371Z,75.38
2022-10-09T00:56:45.481Z,75.20
2022-10-09T00:59:14.622Z,74.69
2022-10-09T01:01:43.046Z,75.03
2022-10-09T01:04:12.613Z,75.46
2022-10-09T01:07:08.583Z,75.35
2022-10-09T01:09:51.742Z,75.07
2022-10-09T01:12:27.129Z,75.34
2022-10-09T01:15:04.188Z,75.35
2022-10-09T01:17:39.994Z,75.36
2022-10-09T01:20:39.942Z,75.28
2022-10-09T01:23:52.439Z,75.23
2022-10-09T01:27:16.777Z,75.04
2022-10-09T01:29:51.132Z,75.02
2022-10-09T01:32:22.907Z,74.93
2022-10-09T01:34:52.785Z,75.04
2022-10-09T01:37:23.153Z,75.31
2022-10-09T01:39:52.875Z,75.56
2022-10-09T01:42:23.790Z,75.16
2022-10-09T01:45:00.409Z,75.01
2022-10-09T01:47:28.935Z,75.53
2022-10-09T01:50:06.606Z,75.36
2022-10-09T01:52:47.023Z,76.11
2022-10-09T01:55:26.933Z,75.54
2022-10-09T01:58:08.559Z,75.80
2022-10-09T02:00:49.433Z,75.97
2022-10-09T02:03:18.507Z,76.07
2022-10-09T02:05:49.590Z,76.01
2022-10-09T02:08:21.771Z,75.82
2022-10-09T02:10:53.410Z,75.68
2022-10-09T02:13:22.168Z,75.78
2022-10-09T02:15:54.969Z,76.09
2022-10-09T02:21:17.939Z,75.68
2022-10-09T02:23:47.441Z,76.14
2022-10-09T02:26:19.429Z,76.10
2022-10-09T02:28:47.847Z,75.97
2022-10-09T02:31:28.652Z,76.07
2022-10-09T02:34:01.931Z,75.64
2022-10-09T02:36:30.996Z,75.98
2022-10-09T02:39:00.163Z,75.51
2022-10-09T02:41:28.351Z,76.06
2022-10-09T02:43:56.132Z,76.03
2022-10-09T02:46:29.578Z,75.80
2022-10-09T02:48:58.092Z,75.84
2022-10-09T02:51:26.938Z,76.13
2022-10-09T02:53:55.583Z,76.16
2022-10-09T02:56:38.811Z,76.28
2022-10-09T02:59:07.415Z,76.13
2022-10-09T03:01:36.891Z,76.32
2022-10-09T03:04:04.967Z,76.24
2022-10-09T03:06:33.987Z,76.17
2022-10-09T03:09:04.816Z,76.32
2022-10-09T03:11:32.663Z,76.50
2022-10-09T03:14:00.571Z,76.15
2022-10-09T03:16:28.536Z,76.56
2022-10-09T03:19:06.364Z,76.51
2022-10-09T03:21:37.320Z,76.46
2022-10-09T03:24:05.544Z,76.48
2022-10-09T03:26:33.446Z,76.38
2022-10-09T03:29:01.559Z,76.76
2022-10-09T03:34:18.531Z,76.64
2022-10-09T03:36:46.712Z,76.61
2022-10-09T03:39:17.702Z,76.10
2022-10-09T03:41:47.625Z,75.88
2022-10-09T03:44:15.530Z,76.26
2022-10-09T03:46:46.594Z,76.46
2022-10-09T03:49:20.449Z,76.19
2022-10-09T03:51:48.231Z,76.21
2022-10-09T03:54:16.165Z,76.50
2022-10-09T03:56:44.019Z,76.55
2022-10-09T03:59:11.927Z,76.46
2022-10-09T04:01:39.749Z,76.62
2022-10-09T04:04:15.159Z,76.69
2022-10-09T04:06:45.242Z,76.39
2022-10-09T04:09:17.214Z,76.88
2022-10-09T04:11:45.046Z,76.74
2022-10-09T04:14:20.556Z,76.65
2022-10-09T04:16:50.596Z,76.71
2022-10-09T04:19:18.586Z,76.88
2022-10-09T04:21:47.797Z,76.64
2022-10-09T04:24:15.809Z,77.08
2022-10-09T04:26:43.636Z,76.43
2022-10-09T04:29:14.675Z,76.78
2022-10-09T04:31:42.518Z,77.20
2022-10-09T04:34:13.429Z,77.09
2022-10-09T04:36:41.398Z,76.51
2022-10-09T04:39:10.693Z,76.38
2022-10-09T04:41:41.668Z,76.69
2022-10-09T04:44:10.397Z,76.74
2022-10-09T04:46:44.261Z,76.92
2022-10-09T04:49:12.946Z,76.68
2022-10-09T04:51:43.008Z,76.94
2022-10-09T04:54:20.334Z,77.23
2022-10-09T04:56:48.199Z,76.97
2022-10-09T04:59:15.974Z,76.80
2022-10-09T05:01:43.823Z,77.16
2022-10-09T05:04:17.980Z,76.81
2022-10-09T05:06:45.801Z,77.00
2022-10-09T05:09:16.980Z,77.39
2022-10-09T05:11:44.742Z,77.44
2022-10-09T05:14:12.777Z,76.66
2022-10-09T05:17:08.428Z,77.18
2022-10-09T05:19:28.769Z,76.90
2022-10-09T05:21:58.416Z,77.39
2022-10-09T05:24:28.165Z,76.89
2022-10-09T05:26:55.991Z,77.16
2022-10-09T05:29:23.909Z,77.04
2022-10-09T05:31:51.673Z,76.88
2022-10-09T05:34:19.505Z,76.89
2022-10-09T05:36:47.354Z,76.93
2022-10-09T05:39:20.971Z,76.98
2022-10-09T05:41:52.548Z,76.80
2022-10-09T05:44:23.095Z,77.02
2022-10-09T05:46:50.870Z,77.38
2022-10-09T05:49:18.811Z,77.23
2022-10-09T05:51:46.538Z,76.86
2022-10-09T05:54:16.568Z,76.84
2022-10-09T05:56:45.793Z,76.68
2022-10-09T05:59:19.408Z,76.95
2022-10-09T06:01:50.082Z,76.97
2022-10-09T06:04:20.067Z,76.61
2022-10-09T06:06:51.547Z,76.65
2022-10-09T06:09:22.198Z,77.13
2022-10-09T06:11:53.157Z,76.81
2022-10-09T06:14:23.065Z,77.11
2022-10-09T06:17:01.717Z,76.91
2022-10-09T06:19:32.311Z,76.84
2022-10-09T06:22:00.041Z,76.33
2022-10-09T06:24:29.362Z,76.60
2022-10-09T06:27:00.579Z,76.54
2022-10-09T06:29:32.678Z,76.18
2022-10-09T06:32:00.464Z,76.01
2022-10-09T06:34:28.370Z,76.34
2022-10-09T06:37:01.960Z,76.05
2022-10-09T06:39:29.840Z,75.92
2022-10-09T06:42:00.758Z,75.52
2022-10-09T06:44:43.393Z,75.76
2022-10-09T06:47:11.410Z,75.88
2022-10-09T06:49:39.204Z,75.69
2022-10-09T06:52:06.985Z,76.07
2022-10-09T06:54:34.945Z,76.29
2022-10-09T06:57:06.080Z,75.66
2022-10-09T06:59:36.342Z,75.65
2022-10-09T07:02:07.863Z,75.82
2022-10-09T07:04:37.542Z,75.21
2022-10-09T07:07:05.400Z,75.17
2022-10-09T07:09:33.192Z,75.15
2022-10-09T07:12:01.148Z,74.86
2022-10-09T07:14:30.642Z,74.58
2022-10-09T07:17:01.390Z,74.90
2022-10-09T07:19:30.507Z,74.60
2022-10-09T07:22:00.458Z,74.12
2022-10-09T07:24:28.216Z,74.50
2022-10-09T07:26:59.671Z,74.17
2022-10-09T07:29:28.561Z,74.30
2022-10-09T07:31:56.369Z,74.23
2022-10-09T07:34:24.414Z,73.69
2022-10-09T07:36:53.547Z,73.64
2022-10-09T07:39:21.662Z,73.87
2022-10-09T07:41:51.642Z,73.73
2022-10-09T07:44:19.867Z,74.12
2022-10-09T07:46:50.300Z,73.43
2022-10-09T07:49:21.363Z,73.62
2022-10-09T07:51:49.755Z,73.76
2022-10-09T07:54:19.071Z,73.00
2022-10-09T07:56:49.387Z,73.35
2022-10-09T07:59:23.203Z,73.23
2022-10-09T08:01:51.039Z,72.24
2022-10-09T08:04:22.172Z,72.39
2022-10-09T08:06:49.978Z,72.43
2022-10-09T08:09:21.939Z,72.11
2022-10-09T08:11:49.782Z,72.44
2022-10-09T08:14:19.652Z,72.61
2022-10-09T08:16:48.128Z,72.30
2022-10-09T08:19:16.695Z,71.99
2022-10-09T08:21:50.681Z,72.42
2022-10-09T08:24:18.645Z,72.30
2022-10-09T08:26:50.779Z,72.23
2022-10-09T08:29:20.855Z,72.54
2022-10-09T08:31:48.666Z,72.50
2022-10-09T08:34:16.923Z,72.31
2022-10-09T08:36:44.865Z,71.72
2022-10-09T08:39:25.003Z,71.40
2022-10-09T08:41:57.668Z,71.77
2022-10-09T08:44:29.077Z,71.04
2022-10-09T08:47:10.318Z,71.21
2022-10-09T08:49:46.733Z,71.19
2022-10-09T08:52:34.726Z,70.89
2022-10-09T08:55:12.023Z,70.56
2022-10-09T08:57:41.733Z,70.79
2022-10-09T09:00:16.389Z,70.94
2022-10-09T09:03:17.614Z,70.43
2022-10-09T09:05:51.952Z,70.68
2022-10-09T09:08:32.165Z,70.97
2022-10-09T09:11:20.639Z,70.56
2022-10-09T09:14:03.521Z,70.61
2022-10-09T09:16:42.022Z,70.94
2022-10-09T09:19:38.355Z,70.46
2022-10-09T09:22:16.687Z,70.25
2022-10-09T09:24:52.400Z,70.12
2022-10-09T09:27:37.718Z,69.57
2022-10-09T09:30:17.957Z,69.52
2022-10-09T09:33:03.600Z,69.58
2022-10-09T09:35:39.535Z,69.54
2022-10-09T09:38:07.293Z,69.50
2022-10-09T09:40:37.733Z,69.32
2022-10-09T09:43:26.861Z,69.40
2022-10-09T09:46:01.729Z,69.30
2022-10-09T09:48:36.121Z,69.24
2022-10-09T09:51:27.043Z,69.47
2022-10-09T09:53:58.878Z,69.35
2022-10-09T09:56:53.265Z,69.38
2022-10-09T09:59:38.092Z,69.28
2022-10-09T10:02:16.078Z,69.12
2022-10-09T10:05:08.698Z,68.99
2022-10-09T10:07:38.763Z,69.06
2022-10-09T10:10:08.363Z,69.22
2022-10-09T10:12:42.018Z,68.70
2022-10-09T10:15:19.898Z,68.68
2022-10-09T10:17:58.695Z,68.53
2022-10-09T10:20:43.606Z,68.86
2022-10-09T10:23:27.623Z,68.43
2022-10-09T10:25:57.876Z,68.69
2022-10-09T10:28:32.714Z,68.44
2022-10-09T10:31:04.125Z,68.29
2022-10-09T10:33:36.867Z,68.19
2022-10-09T10:36:06.556Z,67.87
2022-10-09T10:38:40.402Z,67.86
2022-10-09T10:41:15.198Z,68.09
2022-10-09T10:43:46.712Z,68.08
2022-10-09T10:46:22.061Z,68.31
2022-10-09T10:48:53.875Z,67.64
2022-10-09T10:51:38.926Z,68.08
2022-10-09T10:54:23.505Z,67.60
2022-10-09T10:56:54.864Z,65.43
2022-10-09T10:59:39.684Z,67.00
2022-10-09T11:02:39.456Z,67.57
2022-10-09T11:05:27.087Z,67.38
2022-10-09T11:08:15.557Z,67.59
2022-10-09T11:10:57.252Z,66.95
2022-10-09T11:13:32.207Z,67.07
2022-10-09T11:16:14.890Z,67.08
2022-10-09T11:19:11.785Z,66.54
2022-10-09T11:21:59.271Z,66.79
2022-10-09T11:24:55.347Z,66.77
2022-10-09T11:27:27.948Z,67.12
2022-10-09T11:30:00.851Z,66.46
2022-10-09T11:32:33.563Z,66.40
2022-10-09T11:35:21.344Z,66.50
2022-10-09T11:38:00.091Z,66.38
2022-10-09T11:40:35.615Z,65.10
2022-10-09T11:43:19.868Z,65.97
2022-10-09T11:45:54.534Z,65.83
2022-10-09T11:48:34.396Z,65.57
2022-10-09T11:51:12.856Z,65.17
2022-10-09T11:53:44.144Z,65.02
2022-10-09T11:56:22.905Z,64.42
2022-10-09T11:58:58.538Z,64.82
2022-10-09T12:01:33.662Z,64.92
2022-10-09T12:04:04.257Z,64.79
2022-10-09T12:06:46.045Z,64.63
2022-10-09T12:09:23.921Z,64.39
2022-10-09T12:12:07.143Z,64.73
2022-10-09T12:14:37.135Z,64.99
2022-10-09T12:17:16.792Z,65.39
2022-10-09T12:19:47.812Z,64.87
2022-10-09T12:22:18.861Z,64.66
2022-10-09T12:24:50.983Z,64.13
2022-10-09T12:27:22.308Z,63.53
2022-10-09T12:29:55.527Z,64.04
2022-10-09T12:32:29.441Z,64.75
2022-10-09T12:34:58.202Z,64.97
2022-10-09T12:37:34.879Z,64.63
2022-10-09T12:40:17.844Z,64.15
2022-10-09T12:42:56.352Z,64.33
2022-10-09T12:45:27.663Z,64.55
2022-10-09T12:47:56.297Z,64.68
2022-10-09T12:50:34.573Z,64.99
2022-10-09T12:53:05.179Z,64.74
2022-10-09T12:55:45.423Z,64.46
2022-10-09T12:58:19.381Z,64.04
2022-10-09T13:00:52.143Z,64.21
2022-10-09T13:03:35.692Z,64.09
2022-10-09T13:06:05.046Z,63.37
2022-10-09T13:08:37.142Z,64.14
2022-10-09T13:11:18.978Z,63.20
2022-10-09T13:13:50.697Z,64.04
2022-10-09T13:16:23.044Z,63.97
2022-10-09T13:18:57.360Z,64.55
2022-10-09T13:21:29.142Z,64.47
2022-10-09T13:24:26.780Z,60.15
2022-10-09T13:26:56.001Z,63.88
2022-10-09T13:29:26.793Z,63.95
2022-10-09T13:31:54.705Z,64.20
2022-10-09T13:34:23.704Z,63.73
2022-10-09T13:36:52.547Z,64.17
2022-10-09T13:39:20.317Z,63.81
2022-10-09T13:41:55.729Z,64.09
2022-10-09T13:44:25.094Z,64.26
2022-10-09T13:46:54.355Z,63.80
2022-10-09T13:49:25.237Z,64.14
2022-10-09T13:51:53.037Z,64.46
2022-10-09T13:54:30.136Z,63.60
2022-10-09T13:57:05.157Z,63.81
2022-10-09T13:59:34.487Z,63.56
2022-10-09T14:02:27.404Z,62.69
2022-10-09T14:04:58.579Z,63.58
2022-10-09T14:07:26.854Z,63.28
2022-10-09T14:09:54.645Z,63.26
2022-10-09T14:12:22.983Z,63.27
2022-10-09T14:14:53.849Z,63.42
2022-10-09T14:17:27.865Z,63.19
2022-10-09T14:19:56.128Z,62.60
2022-10-09T14:22:24.023Z,63.08
2022-10-09T14:24:51.810Z,62.83
2022-10-09T14:27:23.743Z,63.22
2022-10-09T14:29:55.329Z,62.88
2022-10-09T14:32:26.012Z,62.54
2022-10-09T14:34:54.071Z,62.41
2022-10-09T14:37:40.379Z,61.47
2022-10-09T14:40:12.223Z,60.98
2022-10-09T14:42:40.817Z,60.44
2022-10-09T14:45:11.628Z,60.87
2022-10-09T14:47:39.399Z,61.72
2022-10-09T14:50:08.106Z,62.25
2022-10-09T14:52:36.048Z,63.00
2022-10-09T14:55:03.871Z,63.40
2022-10-09T14:57:35.220Z,63.43
2022-10-09T15:00:06.687Z,63.47
2022-10-09T15:02:38.434Z,63.85
2022-10-09T15:05:06.966Z,63.92
2022-10-09T15:07:34.728Z,63.17
2022-10-09T15:10:06.285Z,62.51
2022-10-09T15:12:34.065Z,62.50
2022-10-09T15:15:01.810Z,62.91
2022-10-09T15:17:29.574Z,63.33
2022-10-09T15:19:58.775Z,63.61
2022-10-09T15:22:26.549Z,64.41
2022-10-09T15:24:54.354Z,64.11
2022-10-09T15:27:22.102Z,64.15
2022-10-09T15:29:49.852Z,64.52
2022-10-09T15:32:17.623Z,64.66
2022-10-09T15:34:45.417Z,65.01
2022-10-09T15:37:18.372Z,64.94
2022-10-09T15:39:46.192Z,65.18
2022-10-09T15:42:14.019Z,64.89
2022-10-09T15:44:43.464Z,64.83
2022-10-09T15:47:16.341Z,65.03
2022-10-09T15:49:45.941Z,65.23
2022-10-09T15:52:22.066Z,65.37
2022-10-09T15:54:53.115Z,65.58
2022-10-09T15:57:26.119Z,65.25
2022-10-09T15:59:53.936Z,65.86
2022-10-09T16:02:24.721Z,65.62
2022-10-09T16:04:52.525Z,65.76
2022-10-09T16:07:22.409Z,65.59
2022-10-09T16:09:51.711Z,65.78
2022-10-09T16:12:19.471Z,65.79
2022-10-09T16:14:47.242Z,65.85
2022-10-09T16:17:18.372Z,66.24
2022-10-09T16:19:46.104Z,66.26
2022-10-09T16:22:21.257Z,66.15
2022-10-09T16:24:49.269Z,66.37
2022-10-09T16:27:18.428Z,66.21
2022-10-09T16:29:46.167Z,66.40
2022-10-09T16:32:13.997Z,66.65
2022-10-09T16:34:43.840Z,66.83
2022-10-09T16:37:19.086Z,66.98
2022-10-09T16:39:46.865Z,66.89
2022-10-09T16:42:14.602Z,66.85
2022-10-09T16:44:43.875Z,66.99
2022-10-09T16:47:14.012Z,67.06
2022-10-09T16:49:41.909Z,67.32
2022-10-09T16:52:09.871Z,67.22
2022-10-09T16:54:38.788Z,67.54
2022-10-09T16:57:09.026Z,67.38
2022-10-09T16:59:37.133Z,67.54
2022-10-09T17:02:07.190Z,67.72
2022-10-09T17:04:35.485Z,67.26
2022-10-09T17:07:06.310Z,67.87
2022-10-09T17:09:38.244Z,67.81
2022-10-09T17:12:07.622Z,68.38
2022-10-09T17:14:36.456Z,68.16
2022-10-09T17:17:04.512Z,68.33
2022-10-09T17:19:33.791Z,68.01
2022-10-09T17:22:01.849Z,68.26
2022-10-09T17:24:44.394Z,68.23
2022-10-09T17:27:12.164Z,68.77
2022-10-09T17:29:41.031Z,68.83
2022-10-09T17:32:14.140Z,68.89
2022-10-09T17:34:45.910Z,69.18
2022-10-09T17:37:21.822Z,69.38
2022-10-09T17:39:52.195Z,69.47
2022-10-09T17:42:21.904Z,69.33
2022-10-09T17:44:49.836Z,69.31
2022-10-09T17:47:19.789Z,69.73
2022-10-09T17:49:52.238Z,69.30
2022-10-09T17:52:20.138Z,69.96
2022-10-09T17:54:47.960Z,69.20
2022-10-09T17:57:15.968Z,69.74
2022-10-09T17:59:43.788Z,69.34
2022-10-09T18:02:11.770Z,69.17
2022-10-09T18:04:39.556Z,69.17
2022-10-09T18:07:08.827Z,69.31
2022-10-09T18:09:36.731Z,68.91
2022-10-09T18:12:04.810Z,68.72
2022-10-09T18:14:32.649Z,69.24
2022-10-09T18:17:00.455Z,69.11
2022-10-09T18:19:28.435Z,68.91
2022-10-09T18:21:56.260Z,69.03
2022-10-09T18:24:25.596Z,69.26
2022-10-09T18:26:53.399Z,69.08
2022-10-09T18:29:24.458Z,69.33
2022-10-09T18:31:55.625Z,69.58
2022-10-09T18:34:23.963Z,69.56
2022-10-09T18:36:52.295Z,70.08
2022-10-09T18:39:21.483Z,70.11
2022-10-09T18:41:54.056Z,69.63
2022-10-09T18:44:24.135Z,69.29
2022-10-09T18:46:57.376Z,70.17
2022-10-09T18:49:31.501Z,69.96
2022-10-09T18:52:00.739Z,69.48
2022-10-09T18:54:30.545Z,69.35
2022-10-09T18:56:59.821Z,69.79
2022-10-09T18:59:27.697Z,70.07
2022-10-09T19:01:55.550Z,69.91
2022-10-09T19:04:23.976Z,69.61
2022-10-09T19:06:52.244Z,69.86
2022-10-09T19:09:20.698Z,70.20
2022-10-09T19:11:52.533Z,69.76
2022-10-09T19:14:21.950Z,70.58
2022-10-09T19:16:52.751Z,69.76
2022-10-09T19:19:20.687Z,70.16
2022-10-09T19:21:48.457Z,70.38
2022-10-09T19:24:16.271Z,70.59
2022-10-09T19:26:50.118Z,70.63
2022-10-09T19:29:18.045Z,70.32
2022-10-09T19:31:55.867Z,70.14
2022-10-09T19:34:24.024Z,70.02
2022-10-09T19:36:52.335Z,69.79
2022-10-09T19:39:20.274Z,70.18
2022-10-09T19:41:51.092Z,69.88
2022-10-09T19:44:19.511Z,69.89
2022-10-09T19:46:54.695Z,70.17
2022-10-09T19:49:22.566Z,70.20
2022-10-09T19:51:50.781Z,69.81
2022-10-09T19:54:18.741Z,70.06
2022-10-09T19:56:46.539Z,69.48
2022-10-09T19:59:23.068Z,69.31
2022-10-09T20:01:57.236Z,69.57
2022-10-09T20:04:25.550Z,69.42
2022-10-09T20:06:55.882Z,69.94
2022-10-09T20:09:23.706Z,69.99
2022-10-09T20:11:51.739Z,69.18
2022-10-09T20:14:20.463Z,69.30
2022-10-09T20:16:48.416Z,69.55
2022-10-09T20:19:17.627Z,68.73
2022-10-09T20:21:45.421Z,69.70
2022-10-09T20:24:13.171Z,69.25
2022-10-09T20:26:43.174Z,69.41
2022-10-09T20:29:11.668Z,68.68
2022-10-09T20:31:40.148Z,68.89
2022-10-09T20:34:08.202Z,68.67
2022-10-09T20:36:39.193Z,69.67
2022-10-09T20:39:09.665Z,69.35
2022-10-09T20:41:37.874Z,68.74
2022-10-09T20:44:06.793Z,68.95
2022-10-09T20:46:36.627Z,69.62
2022-10-09T20:49:06.749Z,69.04
2022-10-09T20:51:39.530Z,69.14
2022-10-09T20:54:10.384Z,69.17
2022-10-09T20:56:40.860Z,69.94
2022-10-09T20:59:11.423Z,69.16
2022-10-09T21:01:46.867Z,69.28
2022-10-09T21:04:14.831Z,70.11
2022-10-09T21:06:44.574Z,70.49
2022-10-09T21:09:12.339Z,70.11
2022-10-09T21:11:49.099Z,69.48
2022-10-09T21:14:16.840Z,70.04
2022-10-09T21:16:44.854Z,69.83
2022-10-09T21:19:21.354Z,70.03
2022-10-09T21:21:52.376Z,70.40
2022-10-09T21:24:53.461Z,70.55
2022-10-09T21:27:21.334Z,70.72
2022-10-09T21:29:49.408Z,70.42
2022-10-09T21:32:20.079Z,71.07
2022-10-09T21:34:48.004Z,70.76
2022-10-09T21:37:22.047Z,70.63
2022-10-09T21:39:50.253Z,71.10
2022-10-09T21:42:25.476Z,71.55
2022-10-09T21:44:53.192Z,71.19
2022-10-09T21:47:24.050Z,71.23
2022-10-09T21:49:51.988Z,71.26
2022-10-09T21:52:21.120Z,71.54
2022-10-09T21:54:48.875Z,70.95
2022-10-09T21:57:16.721Z,71.17
2022-10-09T21:59:44.568Z,71.17
2022-10-09T22:02:12.762Z,71.09
2022-10-09T22:04:43.912Z,71.15
2022-10-09T22:07:11.729Z,71.52
2022-10-09T22:09:44.032Z,71.76
2022-10-09T22:12:11.894Z,71.35
2022-10-09T22:14:39.789Z,71.59
2022-10-09T22:17:07.624Z,71.07
2022-10-09T22:19:35.424Z,71.21
2022-10-09T22:22:03.289Z,71.33
2022-10-09T22:24:31.397Z,71.57
2022-10-09T22:27:00.652Z,71.64
2022-10-09T22:29:28.527Z,72.04
2022-10-09T22:31:56.363Z,72.14
2022-10-09T22:34:24.211Z,71.99
2022-10-09T22:36:52.077Z,72.16
2022-10-09T22:39:19.891Z,72.04
2022-10-09T22:41:47.755Z,72.40
2022-10-09T22:44:16.947Z,72.47
2022-10-09T22:46:45.623Z,72.40
2022-10-09T22:49:16.076Z,72.39
2022-10-09T22:51:44.790Z,72.41
2022-10-09T22:54:13.694Z,71.91
2022-10-09T22:56:43.359Z,71.91
2022-10-09T22:59:28.906Z,71.91
2022-10-09T23:02:00.028Z,71.82
2022-10-09T23:04:30.890Z,72.02
2022-10-09T23:07:00.113Z,71.61
2022-10-09T23:09:30.346Z,71.40
2022-10-09T23:11:59.343Z,71.72
2022-10-09T23:14:27.800Z,71.42
2022-10-09T23:16:55.615Z,71.17
2022-10-09T23:19:27.868Z,71.18
2022-10-09T23:21:55.667Z,71.27
2022-10-09T23:24:23.483Z,70.85
2022-10-09T23:26:57.649Z,71.39
2022-10-09T23:29:34.521Z,71.15
2022-10-09T23:32:03.090Z,71.10
2022-10-09T23:34:32.275Z,71.63
2022-10-09T23:37:02.458Z,71.54
2022-10-09T23:39:32.414Z,71.46
2022-10-09T23:42:00.231Z,71.21
2022-10-09T23:44:28.059Z,71.34
2022-10-09T23:46:56.229Z,71.33
2022-10-09T23:49:24.025Z,71.01
2022-10-09T23:51:53.393Z,71.17
2022-10-09T23:54:23.494Z,71.52
2022-10-09T23:56:51.281Z,71.82
2022-10-09T23:59:26.532Z,71.68
